createdAt,value
2023-03-06T00:04:11.499Z,54.67
2023-03-06T00:09:13.777Z,48.43
2023-03-06T00:14:16.620Z,55.77
2023-03-06T00:19:18.896Z,50.97
2023-03-06T00:24:21.193Z,50.23
2023-03-06T00:29:23.453Z,67.83
2023-03-06T00:34:26.059Z,83.83
2023-03-06T00:39:28.303Z,67.77
2023-03-06T00:44:31.620Z,59.03
2023-03-06T00:49:34.181Z,38.03
2023-03-06T00:54:36.433Z,43.20
2023-03-06T00:59:38.845Z,51.20
2023-03-06T01:04:41.541Z,52.97
2023-03-06T01:09:44.569Z,63.03
2023-03-06T01:14:46.844Z,80.17
2023-03-06T01:19:49.081Z,115.77
2023-03-06T01:24:51.389Z,104.90
2023-03-06T01:29:53.641Z,93.83
2023-03-06T01:34:57.109Z,99.73
2023-03-06T01:39:59.374Z,72.60
2023-03-06T01:45:03.361Z,63.37
2023-03-06T01:50:08.645Z,71.63
2023-03-06T01:55:19.840Z,51.53
2023-03-06T02:00:25.683Z,58.53
2023-03-06T02:05:28.018Z,55.33
2023-03-06T02:10:31.022Z,50.40
2023-03-06T02:15:33.314Z,27.53
2023-03-06T02:20:46.049Z,46.13
2023-03-06T02:25:52.826Z,34.50
2023-03-06T02:30:56.478Z,36.33
2023-03-06T02:36:04.368Z,30.67
2023-03-06T02:41:09.300Z,29.17
2023-03-06T02:46:11.992Z,27.73
2023-03-06T02:51:14.968Z,30.47
2023-03-06T02:56:17.906Z,24.23
2023-03-06T03:01:20.454Z,20.27
2023-03-06T03:06:22.859Z,27.20
2023-03-06T03:11:26.293Z,24.43
2023-03-06T03:16:28.912Z,25.60
2023-03-06T03:21:34.004Z,22.80
2023-03-06T03:26:36.526Z,24.50
2023-03-06T03:31:44.425Z,27.63
2023-03-06T03:36:47.145Z,21.70
2023-03-06T03:41:50.858Z,27.43
2023-03-06T03:46:53.209Z,25.50
2023-03-06T03:51:58.292Z,23.37
2023-03-06T03:57:03.664Z,25.20
2023-03-06T04:02:09.768Z,25.30
2023-03-06T04:07:20.399Z,123.97
2023-03-06T04:12:23.305Z,91.27
2023-03-06T04:17:26.307Z,69.30
2023-03-06T04:22:30.181Z,75.07
2023-03-06T04:27:32.719Z,64.83
2023-03-06T04:32:35.164Z,22.07
2023-03-06T04:37:38.022Z,25.97
2023-03-06T04:42:40.897Z,30.33
2023-03-06T04:47:43.205Z,23.97
2023-03-06T04:52:45.819Z,38.90
2023-03-06T04:57:48.202Z,21.20
2023-03-06T05:02:52.386Z,32.97
2023-03-06T05:07:55.058Z,55.13
2023-03-06T05:12:57.363Z,34.35
2023-03-06T05:18:00.102Z,46.07
2023-03-06T05:23:02.352Z,26.50
2023-03-06T05:28:04.578Z,26.57
2023-03-06T05:33:06.789Z,22.03
2023-03-06T05:38:09.283Z,38.13
2023-03-06T05:43:22.821Z,39.03
2023-03-06T05:48:25.121Z,42.63
2023-03-06T05:54:19.805Z,34.23
2023-03-06T05:59:33.956Z,25.13
2023-03-06T06:04:37.909Z,27.53
2023-03-06T06:09:40.791Z,216.47
2023-03-06T06:14:43.413Z,103.47
2023-03-06T06:19:53.337Z,126.57
2023-03-06T06:24:55.873Z,40.77
2023-03-06T06:29:58.481Z,26.37
2023-03-06T06:35:00.987Z,25.70
2023-03-06T06:40:04.558Z,29.03
2023-03-06T06:45:08.440Z,36.67
2023-03-06T06:50:15.397Z,26.70
2023-03-06T06:55:20.753Z,25.43
2023-03-06T07:00:26.462Z,19.47
2023-03-06T07:05:29.677Z,31.43
2023-03-06T07:10:32.352Z,75.87
2023-03-06T07:15:34.700Z,48.73
2023-03-06T07:20:37.162Z,20.07
2023-03-06T07:25:40.217Z,12.20
2023-03-06T07:30:43.571Z,86.10
2023-03-06T07:35:46.050Z,29.67
2023-03-06T07:40:51.692Z,20.30
2023-03-06T07:45:59.283Z,15.97
2023-03-06T07:51:07.165Z,13.83
2023-03-06T07:56:11.810Z,15.50
2023-03-06T08:01:16.903Z,15.70
2023-03-06T08:06:27.192Z,16.93
2023-03-06T08:11:30.897Z,16.83
2023-03-06T08:16:33.254Z,16.53
2023-03-06T08:21:36.055Z,18.63
2023-03-06T08:26:38.914Z,16.93
2023-03-06T08:31:43.337Z,18.90
2023-03-06T08:36:45.772Z,12.47
2023-03-06T08:41:47.999Z,15.70
2023-03-06T08:46:50.251Z,15.90
2023-03-06T08:51:52.544Z,31.30
2023-03-06T08:56:54.884Z,40.63
2023-03-06T09:01:57.392Z,44.43
2023-03-06T09:07:01.512Z,41.23
2023-03-06T09:12:04.247Z,59.23
2023-03-06T09:17:06.564Z,40.97
2023-03-06T09:22:08.842Z,25.73
2023-03-06T09:27:11.141Z,24.23
2023-03-06T09:32:13.521Z,29.27
2023-03-06T09:37:17.409Z,56.20
2023-03-06T09:42:23.518Z,48.97
2023-03-06T09:47:52.587Z,98.60
2023-03-06T09:53:02.695Z,215.37
2023-03-06T09:58:20.876Z,54.23
2023-03-06T10:03:54.330Z,31.93
2023-03-06T10:09:11.699Z,46.80
2023-03-06T10:14:37.684Z,38.97
2023-03-06T10:19:41.182Z,39.03
2023-03-06T10:25:15.843Z,43.37
2023-03-06T10:30:24.405Z,54.20
2023-03-06T10:35:38.094Z,124.37
2023-03-06T10:41:05.212Z,31.93
2023-03-06T10:46:09.744Z,242.60
2023-03-06T10:51:23.845Z,21.50
2023-03-06T10:56:52.546Z,38.23
2023-03-06T11:01:57.468Z,30.77
2023-03-06T11:07:20.385Z,32.00
2023-03-06T11:12:35.166Z,30.20
2023-03-06T11:17:48.645Z,27.30
2023-03-06T11:23:01.944Z,82.20
2023-03-06T11:28:26.024Z,59.10
2023-03-06T11:33:56.506Z,53.60
2023-03-06T11:39:14.530Z,45.40
2023-03-06T11:44:26.253Z,129.60
2023-03-06T11:49:40.657Z,68.70
2023-03-06T11:54:57.909Z,37.17
2023-03-06T12:00:22.548Z,62.80
2023-03-06T12:05:38.141Z,41.40
2023-03-06T12:10:55.204Z,53.57
2023-03-06T12:16:07.269Z,27.47
2023-03-06T12:21:21.681Z,23.57
2023-03-06T12:26:49.969Z,89.77
2023-03-06T12:32:21.959Z,23.03
2023-03-06T12:37:52.562Z,29.00
2023-03-06T12:43:32.360Z,32.40
2023-03-06T12:48:37.601Z,23.00
2023-03-06T12:53:41.061Z,49.43
2023-03-06T12:58:53.579Z,28.27
2023-03-06T13:04:21.403Z,17.77
2023-03-06T13:09:47.848Z,71.27
2023-03-06T13:14:58.152Z,19.83
2023-03-06T13:20:15.699Z,23.67
2023-03-06T13:25:21.360Z,45.30
2023-03-06T13:30:45.043Z,10.00
2023-03-06T13:35:52.934Z,12.53
2023-03-06T13:41:21.205Z,9.80
2023-03-06T13:46:35.608Z,19.03
2023-03-06T13:51:40.787Z,7.23
2023-03-06T13:56:58.222Z,11.93
2023-03-06T14:02:19.176Z,10.77
2023-03-06T14:07:33.602Z,10.80
2023-03-06T14:12:43.102Z,14.73
2023-03-06T14:18:14.578Z,12.37
2023-03-06T14:23:38.201Z,9.40
2023-03-06T14:28:40.795Z,14.53
2023-03-06T14:33:52.277Z,9.00
2023-03-06T14:38:58.198Z,6.97
2023-03-06T14:44:20.501Z,36.60
2023-03-06T14:49:25.071Z,9.53
2023-03-06T14:54:37.045Z,8.43
2023-03-06T14:59:48.551Z,7.50
2023-03-06T15:04:56.705Z,8.23
2023-03-06T15:10:00.865Z,10.63
2023-03-06T15:15:05.121Z,8.83
2023-03-06T15:20:28.562Z,8.93
2023-03-06T15:25:31.717Z,8.67
2023-03-06T15:30:36.402Z,10.47
2023-03-06T15:35:39.325Z,15.87
2023-03-06T15:41:00.408Z,13.57
2023-03-06T15:46:06.446Z,10.73
2023-03-06T15:51:09.199Z,10.70
2023-03-06T15:56:12.881Z,10.10
2023-03-06T16:01:17.576Z,9.70
2023-03-06T16:06:22.092Z,11.17
2023-03-06T16:11:35.424Z,10.50
2023-03-06T16:16:44.845Z,8.37
2023-03-06T16:21:47.554Z,16.23
2023-03-06T16:26:52.679Z,13.73
2023-03-06T16:31:57.763Z,10.00
2023-03-06T16:37:00.238Z,51.30
2023-03-06T16:42:08.654Z,26.57
2023-03-06T16:47:13.997Z,28.47
2023-03-06T16:52:18.200Z,28.50
2023-03-06T16:57:20.706Z,18.37
2023-03-06T17:02:23.086Z,14.27
2023-03-06T17:07:40.960Z,15.07
2023-03-06T17:12:43.770Z,21.83
2023-03-06T17:17:46.314Z,63.07
2023-03-06T17:22:48.808Z,48.00
2023-03-06T17:27:51.216Z,20.90
2023-03-06T17:32:53.718Z,15.27
2023-03-06T17:37:57.587Z,20.00
2023-03-06T17:42:59.845Z,14.60
2023-03-06T17:48:02.096Z,17.53
2023-03-06T17:53:04.379Z,49.07
2023-03-06T17:58:07.407Z,65.83
2023-03-06T18:03:09.773Z,47.53
2023-03-06T18:08:12.365Z,32.67
2023-03-06T18:13:14.733Z,47.83
2023-03-06T18:18:17.248Z,98.70
2023-03-06T18:23:19.952Z,67.63
2023-03-06T18:28:22.497Z,48.13
2023-03-06T18:33:24.929Z,44.73
2023-03-06T18:38:27.468Z,48.33
2023-03-06T18:43:29.862Z,56.97
2023-03-06T18:48:32.680Z,67.67
2023-03-06T18:53:36.101Z,44.43
2023-03-06T18:58:38.517Z,52.83
2023-03-06T19:03:40.907Z,44.40
2023-03-06T19:08:46.077Z,45.00
2023-03-06T19:13:48.506Z,46.80
2023-03-06T19:18:51.591Z,71.10
2023-03-06T19:23:54.893Z,161.23
2023-03-06T19:28:57.416Z,151.57
2023-03-06T19:34:00.009Z,91.20
2023-03-06T19:39:04.748Z,70.07
2023-03-06T19:44:10.102Z,162.73
2023-03-06T19:49:16.848Z,63.03
2023-03-06T19:54:23.392Z,92.43
2023-03-06T19:59:25.868Z,59.57
2023-03-06T20:04:34.669Z,101.47
2023-03-06T20:09:37.144Z,118.03
2023-03-06T20:14:39.779Z,108.87
2023-03-06T20:19:42.204Z,43.53
2023-03-06T20:24:44.942Z,74.77
2023-03-06T20:29:47.506Z,78.67
2023-03-06T20:34:49.967Z,110.83
2023-03-06T20:39:52.723Z,112.93
2023-03-06T20:44:55.166Z,140.70
2023-03-06T20:49:57.590Z,113.47
2023-03-06T20:55:00.137Z,98.50
2023-03-06T21:00:03.830Z,92.93
2023-03-06T21:05:06.677Z,80.83
2023-03-06T21:10:09.968Z,74.73
2023-03-06T21:15:13.073Z,77.33
2023-03-06T21:20:15.691Z,84.13
2023-03-06T21:25:18.218Z,85.27
2023-03-06T21:30:20.875Z,85.77
2023-03-06T21:35:23.377Z,109.67
2023-03-06T21:40:25.819Z,110.10
2023-03-06T21:45:30.351Z,106.80
2023-03-06T21:50:32.732Z,153.10
2023-03-06T21:55:38.926Z,115.13
2023-03-06T22:00:41.414Z,258.07
2023-03-06T22:05:45.291Z,199.33
2023-03-06T22:10:49.108Z,152.90
2023-03-06T22:15:53.182Z,148.93
2023-03-06T22:20:55.739Z,128.67
2023-03-06T22:26:02.766Z,122.67
2023-03-06T22:31:12.451Z,138.73
2023-03-06T22:36:15.926Z,118.27
2023-03-06T22:41:20.113Z,126.57
2023-03-06T22:46:23.003Z,126.33
2023-03-06T22:51:26.487Z,126.13
2023-03-06T22:56:28.810Z,117.13
2023-03-06T23:01:33.812Z,113.13
2023-03-06T23:06:39.708Z,93.10
2023-03-06T23:11:42.478Z,90.07
2023-03-06T23:17:03.214Z,101.07
2023-03-06T23:22:24.289Z,76.73
2023-03-06T23:27:45.141Z,67.77
2023-03-06T23:32:47.624Z,76.87
2023-03-06T23:37:50.351Z,58.90
2023-03-06T23:42:53.964Z,52.40
2023-03-06T23:47:57.786Z,49.97
2023-03-06T23:53:00.157Z,57.50
2023-03-06T23:58:02.592Z,67.10
